sensor_id;sensor_type;location;lat;lon;timestamp;P1;durP1;ratioP1;P2;durP2;ratioP2
10491;SDS011;5293;51.464;-2.566;2023-10-19T00:00:45;4.63;;;1.13;;
10491;SDS011;5293;51.464;-2.566;2023-10-19T00:03:14;2.87;;;1.10;;
10491;SDS011;5293;51.464;-2.566;2023-10-19T00:05:40;2.40;;;1.00;;
10491;SDS011;5293;51.464;-2.566;2023-10-19T00:08:15;2.73;;;1.13;;
10491;SDS011;5293;51.464;-2.566;2023-10-19T00:10:49;2.03;;;1.10;;
10491;SDS011;5293;51.464;-2.566;2023-10-19T00:13:35;7.50;;;1.30;;
10491;SDS011;5293;51.464;-2.566;2023-10-19T00:16:05;3.67;;;1.30;;
10491;SDS011;5293;51.464;-2.566;2023-10-19T00:18:42;6.63;;;1.37;;
10491;SDS011;5293;51.464;-2.566;2023-10-19T00:21:08;4.43;;;1.20;;
10491;SDS011;5293;51.464;-2.566;2023-10-19T00:23:50;5.83;;;1.30;;
10491;SDS011;5293;51.464;-2.566;2023-10-19T00:26:20;3.83;;;1.30;;
10491;SDS011;5293;51.464;-2.566;2023-10-19T00:28:46;4.97;;;1.37;;
10491;SDS011;5293;51.464;-2.566;2023-10-19T00:31:17;6.37;;;1.30;;
10491;SDS011;5293;51.464;-2.566;2023-10-19T00:33:45;4.07;;;1.20;;
10491;SDS011;5293;51.464;-2.566;2023-10-19T00:36:11;2.57;;;1.53;;
10491;SDS011;5293;51.464;-2.566;2023-10-19T00:38:40;6.50;;;1.50;;
10491;SDS011;5293;51.464;-2.566;2023-10-19T00:41:17;7.37;;;1.47;;
10491;SDS011;5293;51.464;-2.566;2023-10-19T00:43:47;3.97;;;0.83;;
10491;SDS011;5293;51.464;-2.566;2023-10-19T00:46:32;9.10;;;1.40;;
10491;SDS011;5293;51.464;-2.566;2023-10-19T00:49:03;2.93;;;1.20;;
10491;SDS011;5293;51.464;-2.566;2023-10-19T00:51:51;5.80;;;1.20;;
10491;SDS011;5293;51.464;-2.566;2023-10-19T00:56:58;7.97;;;1.40;;
10491;SDS011;5293;51.464;-2.566;2023-10-19T00:59:31;5.67;;;1.00;;
10491;SDS011;5293;51.464;-2.566;2023-10-19T01:02:00;5.00;;;0.97;;
10491;SDS011;5293;51.464;-2.566;2023-10-19T01:04:52;5.83;;;1.37;;
10491;SDS011;5293;51.464;-2.566;2023-10-19T01:07:26;3.13;;;1.20;;
10491;SDS011;5293;51.464;-2.566;2023-10-19T01:09:53;4.40;;;1.27;;
10491;SDS011;5293;51.464;-2.566;2023-10-19T01:12:22;2.10;;;1.30;;
10491;SDS011;5293;51.464;-2.566;2023-10-19T01:15:14;4.13;;;1.77;;
10491;SDS011;5293;51.464;-2.566;2023-10-19T01:17:41;5.10;;;1.10;;
10491;SDS011;5293;51.464;-2.566;2023-10-19T01:20:19;5.03;;;1.43;;
10491;SDS011;5293;51.464;-2.566;2023-10-19T01:23:05;4.03;;;1.37;;
10491;SDS011;5293;51.464;-2.566;2023-10-19T01:25:47;1.70;;;1.00;;
10491;SDS011;5293;51.464;-2.566;2023-10-19T01:28:25;8.33;;;1.33;;
10491;SDS011;5293;51.464;-2.566;2023-10-19T01:31:07;4.90;;;1.30;;
10491;SDS011;5293;51.464;-2.566;2023-10-19T01:33:47;2.57;;;1.27;;
10491;SDS011;5293;51.464;-2.566;2023-10-19T01:36:14;2.63;;;1.00;;
10491;SDS011;5293;51.464;-2.566;2023-10-19T01:38:49;2.97;;;1.00;;
10491;SDS011;5293;51.464;-2.566;2023-10-19T01:41:25;2.87;;;1.43;;
10491;SDS011;5293;51.464;-2.566;2023-10-19T01:43:52;5.43;;;1.40;;
10491;SDS011;5293;51.464;-2.566;2023-10-19T01:46:19;7.53;;;1.40;;
10491;SDS011;5293;51.464;-2.566;2023-10-19T01:48:50;5.70;;;1.77;;
10491;SDS011;5293;51.464;-2.566;2023-10-19T01:51:21;4.87;;;1.37;;
10491;SDS011;5293;51.464;-2.566;2023-10-19T01:53:48;2.53;;;1.07;;
10491;SDS011;5293;51.464;-2.566;2023-10-19T01:56:15;4.10;;;1.47;;
10491;SDS011;5293;51.464;-2.566;2023-10-19T01:58:42;2.80;;;1.00;;
10491;SDS011;5293;51.464;-2.566;2023-10-19T02:01:09;6.87;;;1.70;;
10491;SDS011;5293;51.464;-2.566;2023-10-19T02:03:38;3.30;;;1.10;;
10491;SDS011;5293;51.464;-2.566;2023-10-19T02:06:07;3.47;;;1.00;;
10491;SDS011;5293;51.464;-2.566;2023-10-19T02:08:49;4.27;;;1.13;;
10491;SDS011;5293;51.464;-2.566;2023-10-19T02:11:26;1.43;;;1.00;;
10491;SDS011;5293;51.464;-2.566;2023-10-19T02:13:56;2.33;;;1.00;;
10491;SDS011;5293;51.464;-2.566;2023-10-19T02:16:29;4.37;;;1.23;;
10491;SDS011;5293;51.464;-2.566;2023-10-19T02:18:55;2.57;;;1.67;;
10491;SDS011;5293;51.464;-2.566;2023-10-19T02:21:21;5.87;;;1.40;;
10491;SDS011;5293;51.464;-2.566;2023-10-19T02:23:50;3.67;;;1.43;;
10491;SDS011;5293;51.464;-2.566;2023-10-19T02:26:19;6.50;;;1.40;;
10491;SDS011;5293;51.464;-2.566;2023-10-19T02:28:47;7.30;;;1.87;;
10491;SDS011;5293;51.464;-2.566;2023-10-19T02:31:16;6.17;;;1.60;;
10491;SDS011;5293;51.464;-2.566;2023-10-19T02:33:49;10.77;;;1.83;;
10491;SDS011;5293;51.464;-2.566;2023-10-19T02:36:26;3.10;;;1.27;;
10491;SDS011;5293;51.464;-2.566;2023-10-19T02:39:00;7.10;;;1.47;;
10491;SDS011;5293;51.464;-2.566;2023-10-19T02:41:42;6.53;;;1.90;;
10491;SDS011;5293;51.464;-2.566;2023-10-19T02:44:10;5.80;;;2.27;;
10491;SDS011;5293;51.464;-2.566;2023-10-19T02:46:50;9.03;;;1.50;;
10491;SDS011;5293;51.464;-2.566;2023-10-19T02:49:19;5.27;;;1.60;;
10491;SDS011;5293;51.464;-2.566;2023-10-19T02:51:46;8.53;;;1.90;;
10491;SDS011;5293;51.464;-2.566;2023-10-19T02:54:14;9.93;;;1.83;;
10491;SDS011;5293;51.464;-2.566;2023-10-19T02:56:43;4.87;;;1.77;;
10491;SDS011;5293;51.464;-2.566;2023-10-19T02:59:14;7.07;;;2.23;;
10491;SDS011;5293;51.464;-2.566;2023-10-19T03:01:41;11.07;;;1.80;;
10491;SDS011;5293;51.464;-2.566;2023-10-19T03:04:09;6.27;;;2.40;;
10491;SDS011;5293;51.464;-2.566;2023-10-19T03:06:37;12.40;;;2.00;;
10491;SDS011;5293;51.464;-2.566;2023-10-19T03:09:05;8.10;;;2.43;;
10491;SDS011;5293;51.464;-2.566;2023-10-19T03:11:45;10.37;;;2.80;;
10491;SDS011;5293;51.464;-2.566;2023-10-19T03:14:11;12.70;;;2.93;;
10491;SDS011;5293;51.464;-2.566;2023-10-19T03:16:37;14.53;;;2.60;;
10491;SDS011;5293;51.464;-2.566;2023-10-19T03:19:06;15.57;;;3.00;;
10491;SDS011;5293;51.464;-2.566;2023-10-19T03:21:32;14.20;;;3.10;;
10491;SDS011;5293;51.464;-2.566;2023-10-19T03:24:07;17.73;;;3.90;;
10491;SDS011;5293;51.464;-2.566;2023-10-19T03:26:37;11.73;;;2.90;;
10491;SDS011;5293;51.464;-2.566;2023-10-19T03:29:05;16.50;;;3.30;;
10491;SDS011;5293;51.464;-2.566;2023-10-19T03:31:37;17.07;;;3.90;;
10491;SDS011;5293;51.464;-2.566;2023-10-19T03:34:11;23.90;;;3.83;;
10491;SDS011;5293;51.464;-2.566;2023-10-19T03:36:38;12.30;;;3.73;;
10491;SDS011;5293;51.464;-2.566;2023-10-19T03:39:04;15.23;;;3.40;;
10491;SDS011;5293;51.464;-2.566;2023-10-19T03:41:40;22.83;;;3.67;;
10491;SDS011;5293;51.464;-2.566;2023-10-19T03:44:10;18.70;;;3.97;;
10491;SDS011;5293;51.464;-2.566;2023-10-19T03:46:49;14.50;;;4.53;;
10491;SDS011;5293;51.464;-2.566;2023-10-19T03:49:21;11.80;;;3.83;;
10491;SDS011;5293;51.464;-2.566;2023-10-19T03:51:47;29.07;;;4.10;;
10491;SDS011;5293;51.464;-2.566;2023-10-19T03:54:46;17.33;;;3.83;;
10491;SDS011;5293;51.464;-2.566;2023-10-19T03:57:15;16.57;;;3.00;;
10491;SDS011;5293;51.464;-2.566;2023-10-19T03:59:47;20.87;;;3.87;;
10491;SDS011;5293;51.464;-2.566;2023-10-19T04:02:18;15.27;;;3.60;;
10491;SDS011;5293;51.464;-2.566;2023-10-19T04:04:48;17.83;;;3.40;;
10491;SDS011;5293;51.464;-2.566;2023-10-19T04:07:14;16.10;;;3.47;;
10491;SDS011;5293;51.464;-2.566;2023-10-19T04:09:43;15.53;;;3.57;;
10491;SDS011;5293;51.464;-2.566;2023-10-19T04:12:27;16.40;;;3.47;;
10491;SDS011;5293;51.464;-2.566;2023-10-19T04:14:54;14.20;;;3.57;;
10491;SDS011;5293;51.464;-2.566;2023-10-19T04:17:21;14.63;;;2.83;;
10491;SDS011;5293;51.464;-2.566;2023-10-19T04:19:49;12.83;;;2.57;;
10491;SDS011;5293;51.464;-2.566;2023-10-19T04:22:17;15.27;;;2.90;;
10491;SDS011;5293;51.464;-2.566;2023-10-19T04:24:51;10.90;;;2.80;;
10491;SDS011;5293;51.464;-2.566;2023-10-19T04:27:18;10.53;;;3.63;;
10491;SDS011;5293;51.464;-2.566;2023-10-19T04:29:48;10.77;;;2.20;;
10491;SDS011;5293;51.464;-2.566;2023-10-19T04:32:14;4.97;;;2.10;;
10491;SDS011;5293;51.464;-2.566;2023-10-19T04:34:48;2.47;;;1.30;;
10491;SDS011;5293;51.464;-2.566;2023-10-19T04:37:14;7.87;;;1.40;;
10491;SDS011;5293;51.464;-2.566;2023-10-19T04:39:43;5.20;;;1.20;;
10491;SDS011;5293;51.464;-2.566;2023-10-19T04:42:09;5.70;;;1.20;;
10491;SDS011;5293;51.464;-2.566;2023-10-19T04:44:35;4.57;;;1.43;;
10491;SDS011;5293;51.464;-2.566;2023-10-19T04:47:01;4.83;;;1.00;;
10491;SDS011;5293;51.464;-2.566;2023-10-19T04:49:26;1.30;;;1.20;;
10491;SDS011;5293;51.464;-2.566;2023-10-19T04:51:53;3.37;;;1.20;;
10491;SDS011;5293;51.464;-2.566;2023-10-19T04:54:19;6.37;;;1.30;;
10491;SDS011;5293;51.464;-2.566;2023-10-19T04:56:44;4.33;;;1.40;;
10491;SDS011;5293;51.464;-2.566;2023-10-19T04:59:10;6.60;;;1.20;;
10491;SDS011;5293;51.464;-2.566;2023-10-19T05:01:36;6.10;;;1.70;;
10491;SDS011;5293;51.464;-2.566;2023-10-19T05:04:02;7.60;;;1.60;;
10491;SDS011;5293;51.464;-2.566;2023-10-19T05:06:28;5.77;;;1.50;;
10491;SDS011;5293;51.464;-2.566;2023-10-19T05:08:54;8.50;;;1.77;;
10491;SDS011;5293;51.464;-2.566;2023-10-19T05:11:20;11.57;;;2.17;;
10491;SDS011;5293;51.464;-2.566;2023-10-19T05:13:45;10.10;;;2.23;;
10491;SDS011;5293;51.464;-2.566;2023-10-19T05:16:11;11.27;;;2.87;;
10491;SDS011;5293;51.464;-2.566;2023-10-19T05:18:37;16.87;;;2.40;;
10491;SDS011;5293;51.464;-2.566;2023-10-19T05:21:03;12.43;;;2.07;;
10491;SDS011;5293;51.464;-2.566;2023-10-19T05:23:30;12.57;;;2.17;;
10491;SDS011;5293;51.464;-2.566;2023-10-19T05:26:05;12.17;;;2.33;;
10491;SDS011;5293;51.464;-2.566;2023-10-19T05:28:31;13.27;;;2.73;;
10491;SDS011;5293;51.464;-2.566;2023-10-19T05:30:57;12.87;;;2.70;;
10491;SDS011;5293;51.464;-2.566;2023-10-19T05:33:24;9.10;;;2.63;;
10491;SDS011;5293;51.464;-2.566;2023-10-19T05:35:51;12.80;;;2.73;;
10491;SDS011;5293;51.464;-2.566;2023-10-19T05:38:17;8.23;;;2.40;;
10491;SDS011;5293;51.464;-2.566;2023-10-19T05:40:44;12.17;;;2.70;;
10491;SDS011;5293;51.464;-2.566;2023-10-19T05:43:10;19.87;;;3.17;;
10491;SDS011;5293;51.464;-2.566;2023-10-19T05:45:36;15.07;;;3.27;;
10491;SDS011;5293;51.464;-2.566;2023-10-19T05:48:05;16.93;;;3.20;;
10491;SDS011;5293;51.464;-2.566;2023-10-19T05:50:32;16.67;;;3.07;;
10491;SDS011;5293;51.464;-2.566;2023-10-19T05:52:58;16.27;;;3.30;;
10491;SDS011;5293;51.464;-2.566;2023-10-19T05:55:25;22.80;;;4.07;;
10491;SDS011;5293;51.464;-2.566;2023-10-19T05:57:50;23.27;;;3.40;;
10491;SDS011;5293;51.464;-2.566;2023-10-19T06:00:16;20.47;;;3.03;;
10491;SDS011;5293;51.464;-2.566;2023-10-19T06:02:45;19.53;;;5.07;;
10491;SDS011;5293;51.464;-2.566;2023-10-19T06:05:14;20.90;;;3.57;;
10491;SDS011;5293;51.464;-2.566;2023-10-19T06:07:41;17.00;;;3.33;;
10491;SDS011;5293;51.464;-2.566;2023-10-19T06:10:08;20.43;;;4.03;;
10491;SDS011;5293;51.464;-2.566;2023-10-19T06:12:40;23.13;;;3.73;;
10491;SDS011;5293;51.464;-2.566;2023-10-19T06:15:17;20.63;;;3.63;;
10491;SDS011;5293;51.464;-2.566;2023-10-19T06:17:45;19.70;;;4.30;;
10491;SDS011;5293;51.464;-2.566;2023-10-19T06:20:13;16.17;;;4.37;;
10491;SDS011;5293;51.464;-2.566;2023-10-19T06:22:49;18.17;;;3.60;;
10491;SDS011;5293;51.464;-2.566;2023-10-19T06:25:18;22.30;;;4.27;;
10491;SDS011;5293;51.464;-2.566;2023-10-19T06:27:46;16.97;;;3.50;;
10491;SDS011;5293;51.464;-2.566;2023-10-19T06:30:12;25.47;;;4.13;;
10491;SDS011;5293;51.464;-2.566;2023-10-19T06:32:43;28.17;;;4.53;;
10491;SDS011;5293;51.464;-2.566;2023-10-19T06:35:10;20.63;;;4.30;;
10491;SDS011;5293;51.464;-2.566;2023-10-19T06:37:36;20.97;;;4.37;;
10491;SDS011;5293;51.464;-2.566;2023-10-19T06:40:02;18.90;;;4.77;;
10491;SDS011;5293;51.464;-2.566;2023-10-19T06:42:28;16.87;;;3.87;;
10491;SDS011;5293;51.464;-2.566;2023-10-19T06:44:53;20.17;;;4.83;;
10491;SDS011;5293;51.464;-2.566;2023-10-19T06:47:21;17.27;;;3.30;;
10491;SDS011;5293;51.464;-2.566;2023-10-19T06:49:48;21.23;;;3.93;;
10491;SDS011;5293;51.464;-2.566;2023-10-19T06:52:15;19.17;;;4.07;;
10491;SDS011;5293;51.464;-2.566;2023-10-19T06:54:41;17.97;;;3.97;;
10491;SDS011;5293;51.464;-2.566;2023-10-19T06:57:07;16.67;;;5.00;;
10491;SDS011;5293;51.464;-2.566;2023-10-19T06:59:34;25.50;;;4.60;;
10491;SDS011;5293;51.464;-2.566;2023-10-19T07:02:01;25.90;;;4.97;;
10491;SDS011;5293;51.464;-2.566;2023-10-19T07:04:30;21.00;;;4.03;;
10491;SDS011;5293;51.464;-2.566;2023-10-19T07:06:56;23.10;;;4.97;;
10491;SDS011;5293;51.464;-2.566;2023-10-19T07:09:23;18.43;;;3.70;;
10491;SDS011;5293;51.464;-2.566;2023-10-19T07:11:49;22.27;;;4.43;;
10491;SDS011;5293;51.464;-2.566;2023-10-19T07:14:19;21.73;;;4.67;;
10491;SDS011;5293;51.464;-2.566;2023-10-19T07:16:47;16.60;;;3.37;;
10491;SDS011;5293;51.464;-2.566;2023-10-19T07:19:16;26.93;;;5.47;;
10491;SDS011;5293;51.464;-2.566;2023-10-19T07:21:43;22.57;;;4.80;;
10491;SDS011;5293;51.464;-2.566;2023-10-19T07:24:13;20.97;;;3.53;;
10491;SDS011;5293;51.464;-2.566;2023-10-19T07:26:39;25.87;;;4.43;;
10491;SDS011;5293;51.464;-2.566;2023-10-19T07:29:18;21.43;;;4.20;;
10491;SDS011;5293;51.464;-2.566;2023-10-19T07:31:45;20.53;;;4.60;;
10491;SDS011;5293;51.464;-2.566;2023-10-19T07:34:10;23.40;;;4.57;;
10491;SDS011;5293;51.464;-2.566;2023-10-19T07:36:40;21.97;;;4.50;;
10491;SDS011;5293;51.464;-2.566;2023-10-19T07:39:07;22.47;;;4.37;;
10491;SDS011;5293;51.464;-2.566;2023-10-19T07:41:39;27.13;;;6.10;;
10491;SDS011;5293;51.464;-2.566;2023-10-19T07:44:05;25.47;;;4.77;;
10491;SDS011;5293;51.464;-2.566;2023-10-19T07:46:31;31.50;;;6.13;;
10491;SDS011;5293;51.464;-2.566;2023-10-19T07:48:56;20.90;;;4.40;;
10491;SDS011;5293;51.464;-2.566;2023-10-19T07:51:24;25.37;;;4.97;;
10491;SDS011;5293;51.464;-2.566;2023-10-19T07:53:50;19.93;;;3.70;;
10491;SDS011;5293;51.464;-2.566;2023-10-19T07:56:16;20.37;;;5.40;;
10491;SDS011;5293;51.464;-2.566;2023-10-19T07:58:42;25.27;;;4.90;;
10491;SDS011;5293;51.464;-2.566;2023-10-19T08:01:08;27.47;;;4.93;;
10491;SDS011;5293;51.464;-2.566;2023-10-19T08:03:34;25.33;;;5.37;;
10491;SDS011;5293;51.464;-2.566;2023-10-19T08:06:00;16.50;;;4.17;;
10491;SDS011;5293;51.464;-2.566;2023-10-19T08:08:26;21.17;;;4.60;;
10491;SDS011;5293;51.464;-2.566;2023-10-19T08:10:58;19.87;;;4.50;;
10491;SDS011;5293;51.464;-2.566;2023-10-19T08:13:24;25.60;;;4.90;;
10491;SDS011;5293;51.464;-2.566;2023-10-19T08:15:51;24.67;;;5.13;;
10491;SDS011;5293;51.464;-2.566;2023-10-19T08:18:17;18.97;;;4.00;;
10491;SDS011;5293;51.464;-2.566;2023-10-19T08:20:43;27.43;;;5.57;;
10491;SDS011;5293;51.464;-2.566;2023-10-19T08:23:14;31.83;;;5.20;;
10491;SDS011;5293;51.464;-2.566;2023-10-19T08:25:41;17.80;;;4.57;;
10491;SDS011;5293;51.464;-2.566;2023-10-19T08:28:09;22.73;;;4.23;;
10491;SDS011;5293;51.464;-2.566;2023-10-19T08:30:36;21.80;;;4.37;;
10491;SDS011;5293;51.464;-2.566;2023-10-19T08:33:02;15.67;;;3.70;;
10491;SDS011;5293;51.464;-2.566;2023-10-19T08:35:28;28.33;;;5.13;;
10491;SDS011;5293;51.464;-2.566;2023-10-19T08:37:56;24.83;;;4.97;;
10491;SDS011;5293;51.464;-2.566;2023-10-19T08:40:25;22.50;;;5.33;;
10491;SDS011;5293;51.464;-2.566;2023-10-19T08:42:52;22.33;;;5.20;;
10491;SDS011;5293;51.464;-2.566;2023-10-19T08:45:18;23.67;;;4.67;;
10491;SDS011;5293;51.464;-2.566;2023-10-19T08:50:21;17.83;;;4.20;;
10491;SDS011;5293;51.464;-2.566;2023-10-19T08:52:49;9.80;;;3.50;;
10491;SDS011;5293;51.464;-2.566;2023-10-19T08:55:18;13.07;;;2.93;;
10491;SDS011;5293;51.464;-2.566;2023-10-19T08:57:45;14.47;;;3.20;;
10491;SDS011;5293;51.464;-2.566;2023-10-19T09:00:15;16.33;;;3.57;;
10491;SDS011;5293;51.464;-2.566;2023-10-19T09:02:43;18.93;;;3.77;;
10491;SDS011;5293;51.464;-2.566;2023-10-19T09:05:09;19.83;;;4.23;;
10491;SDS011;5293;51.464;-2.566;2023-10-19T09:07:45;16.40;;;3.57;;
10491;SDS011;5293;51.464;-2.566;2023-10-19T09:10:15;15.10;;;3.63;;
10491;SDS011;5293;51.464;-2.566;2023-10-19T09:12:41;14.87;;;3.10;;
10491;SDS011;5293;51.464;-2.566;2023-10-19T09:15:29;16.77;;;3.60;;
10491;SDS011;5293;51.464;-2.566;2023-10-19T09:17:57;25.67;;;4.17;;
10491;SDS011;5293;51.464;-2.566;2023-10-19T09:20:24;22.23;;;4.17;;
10491;SDS011;5293;51.464;-2.566;2023-10-19T09:22:54;27.03;;;5.20;;
10491;SDS011;5293;51.464;-2.566;2023-10-19T09:25:27;21.20;;;5.43;;
10491;SDS011;5293;51.464;-2.566;2023-10-19T09:27:53;17.27;;;3.90;;
10491;SDS011;5293;51.464;-2.566;2023-10-19T09:30:22;15.77;;;4.00;;
10491;SDS011;5293;51.464;-2.566;2023-10-19T09:32:55;20.13;;;4.50;;
10491;SDS011;5293;51.464;-2.566;2023-10-19T09:35:22;28.77;;;4.73;;
10491;SDS011;5293;51.464;-2.566;2023-10-19T09:37:52;18.17;;;4.33;;
10491;SDS011;5293;51.464;-2.566;2023-10-19T09:40:22;28.17;;;4.87;;
10491;SDS011;5293;51.464;-2.566;2023-10-19T09:42:49;17.53;;;4.80;;
10491;SDS011;5293;51.464;-2.566;2023-10-19T09:45:18;19.77;;;3.90;;
10491;SDS011;5293;51.464;-2.566;2023-10-19T09:47:51;24.73;;;4.87;;
10491;SDS011;5293;51.464;-2.566;2023-10-19T09:50:19;20.67;;;4.90;;
10491;SDS011;5293;51.464;-2.566;2023-10-19T09:52:45;24.03;;;4.20;;
10491;SDS011;5293;51.464;-2.566;2023-10-19T09:55:17;22.17;;;4.77;;
10491;SDS011;5293;51.464;-2.566;2023-10-19T09:57:53;23.23;;;4.07;;
10491;SDS011;5293;51.464;-2.566;2023-10-19T10:00:51;22.33;;;4.60;;
10491;SDS011;5293;51.464;-2.566;2023-10-19T10:06:08;12.70;;;4.23;;
10491;SDS011;5293;51.464;-2.566;2023-10-19T10:08:39;21.37;;;4.67;;
10491;SDS011;5293;51.464;-2.566;2023-10-19T10:11:16;17.37;;;4.43;;
10491;SDS011;5293;51.464;-2.566;2023-10-19T10:13:47;20.53;;;3.83;;
10491;SDS011;5293;51.464;-2.566;2023-10-19T10:16:17;21.10;;;5.27;;
10491;SDS011;5293;51.464;-2.566;2023-10-19T10:18:48;14.77;;;3.30;;
10491;SDS011;5293;51.464;-2.566;2023-10-19T10:21:21;22.20;;;4.70;;
10491;SDS011;5293;51.464;-2.566;2023-10-19T10:23:52;16.63;;;3.67;;
10491;SDS011;5293;51.464;-2.566;2023-10-19T10:26:21;16.63;;;4.80;;
10491;SDS011;5293;51.464;-2.566;2023-10-19T10:31:40;14.80;;;3.60;;
10491;SDS011;5293;51.464;-2.566;2023-10-19T10:34:11;15.17;;;3.50;;
10491;SDS011;5293;51.464;-2.566;2023-10-19T10:36:58;10.97;;;3.20;;
10491;SDS011;5293;51.464;-2.566;2023-10-19T10:39:33;20.00;;;3.80;;
10491;SDS011;5293;51.464;-2.566;2023-10-19T10:42:03;15.10;;;3.43;;
10491;SDS011;5293;51.464;-2.566;2023-10-19T10:44:37;15.60;;;3.50;;
10491;SDS011;5293;51.464;-2.566;2023-10-19T10:47:08;19.75;;;4.43;;
10491;SDS011;5293;51.464;-2.566;2023-10-19T10:49:48;19.07;;;3.97;;
10491;SDS011;5293;51.464;-2.566;2023-10-19T10:52:25;12.27;;;3.30;;
10491;SDS011;5293;51.464;-2.566;2023-10-19T10:54:57;18.87;;;3.63;;
10491;SDS011;5293;51.464;-2.566;2023-10-19T10:57:23;19.63;;;4.00;;
10491;SDS011;5293;51.464;-2.566;2023-10-19T11:00:12;15.53;;;4.17;;
10491;SDS011;5293;51.464;-2.566;2023-10-19T11:02:44;20.10;;;3.57;;
10491;SDS011;5293;51.464;-2.566;2023-10-19T11:05:12;15.67;;;3.87;;
10491;SDS011;5293;51.464;-2.566;2023-10-19T11:07:39;15.30;;;3.40;;
10491;SDS011;5293;51.464;-2.566;2023-10-19T11:10:05;17.17;;;4.00;;
10491;SDS011;5293;51.464;-2.566;2023-10-19T11:12:31;16.07;;;3.67;;
10491;SDS011;5293;51.464;-2.566;2023-10-19T11:14:59;14.77;;;3.80;;
10491;SDS011;5293;51.464;-2.566;2023-10-19T11:17:26;18.37;;;3.47;;
10491;SDS011;5293;51.464;-2.566;2023-10-19T11:19:57;18.07;;;3.63;;
10491;SDS011;5293;51.464;-2.566;2023-10-19T11:22:23;16.43;;;3.90;;
10491;SDS011;5293;51.464;-2.566;2023-10-19T11:24:50;15.00;;;3.30;;
10491;SDS011;5293;51.464;-2.566;2023-10-19T11:27:26;20.43;;;3.70;;
10491;SDS011;5293;51.464;-2.566;2023-10-19T11:29:54;11.10;;;3.20;;
10491;SDS011;5293;51.464;-2.566;2023-10-19T11:32:23;18.80;;;4.40;;
10491;SDS011;5293;51.464;-2.566;2023-10-19T11:34:53;15.37;;;3.40;;
10491;SDS011;5293;51.464;-2.566;2023-10-19T11:37:19;22.37;;;4.20;;
10491;SDS011;5293;51.464;-2.566;2023-10-19T11:39:45;16.10;;;3.80;;
10491;SDS011;5293;51.464;-2.566;2023-10-19T11:42:12;17.83;;;3.87;;
10491;SDS011;5293;51.464;-2.566;2023-10-19T11:44:38;14.20;;;3.30;;
10491;SDS011;5293;51.464;-2.566;2023-10-19T11:47:04;14.30;;;4.07;;
10491;SDS011;5293;51.464;-2.566;2023-10-19T11:49:30;13.17;;;3.23;;
10491;SDS011;5293;51.464;-2.566;2023-10-19T11:51:56;15.73;;;3.27;;
10491;SDS011;5293;51.464;-2.566;2023-10-19T11:54:22;13.63;;;3.37;;
10491;SDS011;5293;51.464;-2.566;2023-10-19T11:56:48;12.60;;;3.37;;
10491;SDS011;5293;51.464;-2.566;2023-10-19T11:59:14;14.83;;;3.50;;
10491;SDS011;5293;51.464;-2.566;2023-10-19T12:01:40;15.47;;;3.47;;
10491;SDS011;5293;51.464;-2.566;2023-10-19T12:04:07;13.47;;;3.23;;
10491;SDS011;5293;51.464;-2.566;2023-10-19T12:06:34;23.93;;;3.97;;
10491;SDS011;5293;51.464;-2.566;2023-10-19T12:09:00;14.90;;;3.80;;
10491;SDS011;5293;51.464;-2.566;2023-10-19T12:11:39;19.53;;;3.90;;
10491;SDS011;5293;51.464;-2.566;2023-10-19T12:14:09;16.77;;;4.10;;
10491;SDS011;5293;51.464;-2.566;2023-10-19T12:16:40;15.03;;;3.43;;
10491;SDS011;5293;51.464;-2.566;2023-10-19T12:19:06;10.60;;;3.30;;
10491;SDS011;5293;51.464;-2.566;2023-10-19T12:21:35;18.80;;;3.93;;
10491;SDS011;5293;51.464;-2.566;2023-10-19T12:24:02;12.07;;;3.00;;
10491;SDS011;5293;51.464;-2.566;2023-10-19T12:26:30;11.07;;;2.87;;
10491;SDS011;5293;51.464;-2.566;2023-10-19T12:28:55;11.73;;;2.80;;
10491;SDS011;5293;51.464;-2.566;2023-10-19T12:31:21;12.27;;;2.73;;
10491;SDS011;5293;51.464;-2.566;2023-10-19T12:33:48;11.13;;;2.37;;
10491;SDS011;5293;51.464;-2.566;2023-10-19T12:36:14;9.90;;;2.97;;
10491;SDS011;5293;51.464;-2.566;2023-10-19T12:38:49;11.33;;;2.73;;
10491;SDS011;5293;51.464;-2.566;2023-10-19T12:41:16;12.03;;;2.50;;
10491;SDS011;5293;51.464;-2.566;2023-10-19T12:43:42;9.47;;;2.53;;
10491;SDS011;5293;51.464;-2.566;2023-10-19T12:46:08;13.70;;;3.13;;
10491;SDS011;5293;51.464;-2.566;2023-10-19T12:48:35;11.73;;;2.53;;
10491;SDS011;5293;51.464;-2.566;2023-10-19T12:51:01;10.93;;;3.00;;
10491;SDS011;5293;51.464;-2.566;2023-10-19T12:53:27;9.83;;;2.93;;
10491;SDS011;5293;51.464;-2.566;2023-10-19T12:55:53;11.67;;;2.50;;
10491;SDS011;5293;51.464;-2.566;2023-10-19T12:58:18;10.93;;;2.47;;
10491;SDS011;5293;51.464;-2.566;2023-10-19T13:00:47;12.27;;;3.10;;
10491;SDS011;5293;51.464;-2.566;2023-10-19T13:03:13;14.50;;;3.47;;
10491;SDS011;5293;51.464;-2.566;2023-10-19T13:05:40;16.83;;;3.53;;
10491;SDS011;5293;51.464;-2.566;2023-10-19T13:08:08;13.60;;;2.63;;
10491;SDS011;5293;51.464;-2.566;2023-10-19T13:10:34;13.17;;;2.60;;
10491;SDS011;5293;51.464;-2.566;2023-10-19T13:13:03;11.57;;;3.17;;
10491;SDS011;5293;51.464;-2.566;2023-10-19T13:15:33;8.77;;;2.63;;
10491;SDS011;5293;51.464;-2.566;2023-10-19T13:18:00;10.20;;;3.37;;
10491;SDS011;5293;51.464;-2.566;2023-10-19T13:20:27;12.50;;;2.60;;
10491;SDS011;5293;51.464;-2.566;2023-10-19T13:22:59;8.53;;;2.33;;
10491;SDS011;5293;51.464;-2.566;2023-10-19T13:25:40;9.87;;;2.97;;
10491;SDS011;5293;51.464;-2.566;2023-10-19T13:28:11;10.13;;;2.53;;
10491;SDS011;5293;51.464;-2.566;2023-10-19T13:30:38;11.17;;;2.70;;
10491;SDS011;5293;51.464;-2.566;2023-10-19T13:33:06;9.57;;;3.00;;
10491;SDS011;5293;51.464;-2.566;2023-10-19T13:35:34;11.83;;;3.47;;
10491;SDS011;5293;51.464;-2.566;2023-10-19T13:38:04;8.43;;;2.90;;
10491;SDS011;5293;51.464;-2.566;2023-10-19T13:40:34;10.47;;;2.80;;
10491;SDS011;5293;51.464;-2.566;2023-10-19T13:43:01;17.57;;;3.77;;
10491;SDS011;5293;51.464;-2.566;2023-10-19T13:45:30;14.73;;;3.50;;
10491;SDS011;5293;51.464;-2.566;2023-10-19T13:47:58;14.70;;;3.73;;
10491;SDS011;5293;51.464;-2.566;2023-10-19T13:50:24;18.30;;;3.90;;
10491;SDS011;5293;51.464;-2.566;2023-10-19T13:52:51;11.03;;;3.23;;
10491;SDS011;5293;51.464;-2.566;2023-10-19T13:55:21;11.70;;;3.27;;
10491;SDS011;5293;51.464;-2.566;2023-10-19T13:57:48;11.87;;;2.70;;
10491;SDS011;5293;51.464;-2.566;2023-10-19T14:00:15;11.73;;;3.30;;
10491;SDS011;5293;51.464;-2.566;2023-10-19T14:02:48;12.00;;;2.53;;
10491;SDS011;5293;51.464;-2.566;2023-10-19T14:05:17;15.80;;;3.80;;
10491;SDS011;5293;51.464;-2.566;2023-10-19T14:07:44;12.37;;;2.70;;
10491;SDS011;5293;51.464;-2.566;2023-10-19T14:10:12;14.77;;;3.60;;
10491;SDS011;5293;51.464;-2.566;2023-10-19T14:12:41;12.13;;;3.07;;
10491;SDS011;5293;51.464;-2.566;2023-10-19T14:15:14;10.27;;;2.77;;
10491;SDS011;5293;51.464;-2.566;2023-10-19T14:17:42;15.77;;;2.53;;
10491;SDS011;5293;51.464;-2.566;2023-10-19T14:20:11;12.27;;;3.17;;
10491;SDS011;5293;51.464;-2.566;2023-10-19T14:22:58;15.93;;;3.17;;
10491;SDS011;5293;51.464;-2.566;2023-10-19T14:25:23;12.20;;;3.07;;
10491;SDS011;5293;51.464;-2.566;2023-10-19T14:27:53;10.57;;;3.50;;
10491;SDS011;5293;51.464;-2.566;2023-10-19T14:30:31;16.00;;;3.20;;
10491;SDS011;5293;51.464;-2.566;2023-10-19T14:32:58;8.27;;;2.70;;
10491;SDS011;5293;51.464;-2.566;2023-10-19T14:35:24;10.40;;;3.40;;
10491;SDS011;5293;51.464;-2.566;2023-10-19T14:37:51;13.30;;;2.80;;
10491;SDS011;5293;51.464;-2.566;2023-10-19T14:40:22;12.03;;;2.70;;
10491;SDS011;5293;51.464;-2.566;2023-10-19T14:42:53;15.07;;;2.73;;
10491;SDS011;5293;51.464;-2.566;2023-10-19T14:45:20;11.63;;;3.17;;
10491;SDS011;5293;51.464;-2.566;2023-10-19T14:47:51;10.00;;;3.27;;
10491;SDS011;5293;51.464;-2.566;2023-10-19T14:50:18;13.23;;;3.27;;
10491;SDS011;5293;51.464;-2.566;2023-10-19T14:52:47;13.20;;;3.33;;
10491;SDS011;5293;51.464;-2.566;2023-10-19T14:55:15;14.03;;;2.43;;
10491;SDS011;5293;51.464;-2.566;2023-10-19T14:57:41;8.40;;;2.70;;
10491;SDS011;5293;51.464;-2.566;2023-10-19T15:00:10;9.73;;;2.63;;
10491;SDS011;5293;51.464;-2.566;2023-10-19T15:02:44;12.77;;;2.60;;